GQPA/ATR METAR and TAF weather

Enter ICAO airport designator
Station Type Date Time Source
GQPA METAR 2018/07/20 12:00 UTC NOAA

GQPA 201200Z 34008KT 6000 DU NSC 38/13 Q1012


Station Type Date Time Source
GQPA Decoded METAR 2018/07/20 12:00 UTC NOAA

Atar, Mauritania (GQPA) 20-31N 013-04W 224M
Jul 20, 2018 - 08:00 AM EDT / 2018.07.20 1200 UTC
Wind: from the NNW (340 degrees) at 9 MPH (8 KT):0
Visibility: 3 mile(s):0
Weather: widespread dust
Temperature: 100 F (38 C)
Heat index: 98.2 F (36.8 C):1
Dew Point: 55 F (13 C)
Relative Humidity: 22%
Pressure (altimeter): 29.88 in. Hg (1012 hPa)
ob: GQPA 201200Z 34008KT 6000 DU NSC 38/13 Q1012
cycle: 12

Station Type Date Time Source
GQPA TAF UTC NOAA

Error!


Example: see airport list